sensor_id;sensor_type;location;lat;lon;timestamp;temperature;humidity
20866;DHT22;10593;48.398;10.698;2023-05-14T00:01:26;15.40;61.00
20866;DHT22;10593;48.398;10.698;2023-05-14T00:03:52;15.40;61.10
20866;DHT22;10593;48.398;10.698;2023-05-14T00:06:18;15.40;61.10
20866;DHT22;10593;48.398;10.698;2023-05-14T00:08:43;15.40;61.00
20866;DHT22;10593;48.398;10.698;2023-05-14T00:11:09;15.40;61.00
20866;DHT22;10593;48.398;10.698;2023-05-14T00:13:35;15.30;61.00
20866;DHT22;10593;48.398;10.698;2023-05-14T00:16:01;15.30;61.00
20866;DHT22;10593;48.398;10.698;2023-05-14T00:18:27;15.30;61.00
20866;DHT22;10593;48.398;10.698;2023-05-14T00:20:53;15.30;61.00
20866;DHT22;10593;48.398;10.698;2023-05-14T00:23:22;15.30;61.00
20866;DHT22;10593;48.398;10.698;2023-05-14T00:25:48;15.30;61.10
20866;DHT22;10593;48.398;10.698;2023-05-14T00:28:15;15.20;61.00
20866;DHT22;10593;48.398;10.698;2023-05-14T00:30:40;15.20;61.00
20866;DHT22;10593;48.398;10.698;2023-05-14T00:33:06;15.20;61.00
20866;DHT22;10593;48.398;10.698;2023-05-14T00:35:32;15.20;61.00
20866;DHT22;10593;48.398;10.698;2023-05-14T00:38:02;15.20;61.00
20866;DHT22;10593;48.398;10.698;2023-05-14T00:40:28;15.10;61.00
20866;DHT22;10593;48.398;10.698;2023-05-14T00:42:54;15.20;61.10
20866;DHT22;10593;48.398;10.698;2023-05-14T00:45:21;15.10;61.00
20866;DHT22;10593;48.398;10.698;2023-05-14T00:47:47;15.10;61.10
20866;DHT22;10593;48.398;10.698;2023-05-14T00:50:15;15.10;61.00
20866;DHT22;10593;48.398;10.698;2023-05-14T00:52:42;15.10;61.00
20866;DHT22;10593;48.398;10.698;2023-05-14T00:55:08;15.10;61.00
20866;DHT22;10593;48.398;10.698;2023-05-14T00:57:37;15.10;60.90
20866;DHT22;10593;48.398;10.698;2023-05-14T01:00:03;15.00;60.80
20866;DHT22;10593;48.398;10.698;2023-05-14T01:02:29;15.00;61.00
20866;DHT22;10593;48.398;10.698;2023-05-14T01:04:56;15.00;61.00
20866;DHT22;10593;48.398;10.698;2023-05-14T01:07:30;15.00;61.10
20866;DHT22;10593;48.398;10.698;2023-05-14T01:10:16;15.00;61.10
20866;DHT22;10593;48.398;10.698;2023-05-14T01:13:01;15.00;61.20
20866;DHT22;10593;48.398;10.698;2023-05-14T01:15:35;15.00;61.10
20866;DHT22;10593;48.398;10.698;2023-05-14T01:18:08;15.00;61.10
20866;DHT22;10593;48.398;10.698;2023-05-14T01:20:35;15.00;61.10
20866;DHT22;10593;48.398;10.698;2023-05-14T01:23:01;14.90;61.00
20866;DHT22;10593;48.398;10.698;2023-05-14T01:25:29;14.90;61.00
20866;DHT22;10593;48.398;10.698;2023-05-14T01:31:03;14.90;61.40
20866;DHT22;10593;48.398;10.698;2023-05-14T01:33:33;14.90;61.20
20866;DHT22;10593;48.398;10.698;2023-05-14T01:36:00;14.90;61.10
20866;DHT22;10593;48.398;10.698;2023-05-14T01:38:28;14.90;61.80
20866;DHT22;10593;48.398;10.698;2023-05-14T01:40:56;14.90;61.20
20866;DHT22;10593;48.398;10.698;2023-05-14T01:43:23;14.90;61.30
20866;DHT22;10593;48.398;10.698;2023-05-14T01:45:48;14.80;61.20
20866;DHT22;10593;48.398;10.698;2023-05-14T01:48:14;14.90;61.30
20866;DHT22;10593;48.398;10.698;2023-05-14T01:50:40;14.80;61.20
20866;DHT22;10593;48.398;10.698;2023-05-14T01:53:06;14.80;61.20
20866;DHT22;10593;48.398;10.698;2023-05-14T01:55:31;14.90;61.20
20866;DHT22;10593;48.398;10.698;2023-05-14T01:57:57;14.80;61.00
20866;DHT22;10593;48.398;10.698;2023-05-14T02:00:23;14.80;61.10
20866;DHT22;10593;48.398;10.698;2023-05-14T02:02:52;14.80;61.20
20866;DHT22;10593;48.398;10.698;2023-05-14T02:05:18;14.80;61.30
20866;DHT22;10593;48.398;10.698;2023-05-14T02:07:44;14.80;61.50
20866;DHT22;10593;48.398;10.698;2023-05-14T02:10:09;14.80;61.30
20866;DHT22;10593;48.398;10.698;2023-05-14T02:12:35;14.80;61.30
20866;DHT22;10593;48.398;10.698;2023-05-14T02:15:04;14.80;61.30
20866;DHT22;10593;48.398;10.698;2023-05-14T02:17:30;14.80;61.40
20866;DHT22;10593;48.398;10.698;2023-05-14T02:19:56;14.80;61.40
20866;DHT22;10593;48.398;10.698;2023-05-14T02:22:22;14.80;61.40
20866;DHT22;10593;48.398;10.698;2023-05-14T02:24:47;14.80;61.40
20866;DHT22;10593;48.398;10.698;2023-05-14T02:27:14;14.80;61.30
20866;DHT22;10593;48.398;10.698;2023-05-14T02:29:40;14.80;61.30
20866;DHT22;10593;48.398;10.698;2023-05-14T02:32:05;14.80;61.20
20866;DHT22;10593;48.398;10.698;2023-05-14T02:34:31;14.80;61.20
20866;DHT22;10593;48.398;10.698;2023-05-14T02:36:58;14.80;61.30
20866;DHT22;10593;48.398;10.698;2023-05-14T02:39:24;14.80;61.30
20866;DHT22;10593;48.398;10.698;2023-05-14T02:41:50;14.80;61.30
20866;DHT22;10593;48.398;10.698;2023-05-14T02:44:15;14.80;61.30
20866;DHT22;10593;48.398;10.698;2023-05-14T02:46:42;14.80;61.40
20866;DHT22;10593;48.398;10.698;2023-05-14T02:49:07;14.80;61.30
20866;DHT22;10593;48.398;10.698;2023-05-14T02:51:33;14.80;61.30
20866;DHT22;10593;48.398;10.698;2023-05-14T02:53:59;14.80;61.30
20866;DHT22;10593;48.398;10.698;2023-05-14T02:56:24;14.80;61.20
20866;DHT22;10593;48.398;10.698;2023-05-14T02:58:50;14.80;61.20
20866;DHT22;10593;48.398;10.698;2023-05-14T03:01:16;14.80;61.10
20866;DHT22;10593;48.398;10.698;2023-05-14T03:03:43;14.80;61.20
20866;DHT22;10593;48.398;10.698;2023-05-14T03:06:08;14.80;61.10
20866;DHT22;10593;48.398;10.698;2023-05-14T03:08:34;14.80;61.10
20866;DHT22;10593;48.398;10.698;2023-05-14T03:11:00;14.80;61.10
20866;DHT22;10593;48.398;10.698;2023-05-14T03:13:25;14.80;61.20
20866;DHT22;10593;48.398;10.698;2023-05-14T03:15:51;14.80;61.20
20866;DHT22;10593;48.398;10.698;2023-05-14T03:18:19;14.80;61.20
20866;DHT22;10593;48.398;10.698;2023-05-14T03:20:45;14.80;61.20
20866;DHT22;10593;48.398;10.698;2023-05-14T03:23:11;14.70;61.10
20866;DHT22;10593;48.398;10.698;2023-05-14T03:25:37;14.70;61.00
20866;DHT22;10593;48.398;10.698;2023-05-14T03:28:03;14.70;61.00
20866;DHT22;10593;48.398;10.698;2023-05-14T03:30:28;14.70;61.00
20866;DHT22;10593;48.398;10.698;2023-05-14T03:32:54;14.70;60.90
20866;DHT22;10593;48.398;10.698;2023-05-14T03:35:20;14.70;60.90
20866;DHT22;10593;48.398;10.698;2023-05-14T03:37:46;14.70;61.00
20866;DHT22;10593;48.398;10.698;2023-05-14T03:40:12;14.70;60.90
20866;DHT22;10593;48.398;10.698;2023-05-14T03:42:37;14.70;60.90
20866;DHT22;10593;48.398;10.698;2023-05-14T03:45:03;14.70;60.80
20866;DHT22;10593;48.398;10.698;2023-05-14T03:47:29;14.60;60.70
20866;DHT22;10593;48.398;10.698;2023-05-14T03:49:56;14.70;60.90
20866;DHT22;10593;48.398;10.698;2023-05-14T03:52:22;14.60;61.40
20866;DHT22;10593;48.398;10.698;2023-05-14T03:54:47;14.60;60.80
20866;DHT22;10593;48.398;10.698;2023-05-14T03:57:13;14.60;60.90
20866;DHT22;10593;48.398;10.698;2023-05-14T03:59:39;14.60;60.90
20866;DHT22;10593;48.398;10.698;2023-05-14T04:02:04;14.60;60.90
20866;DHT22;10593;48.398;10.698;2023-05-14T04:04:31;14.60;60.80
20866;DHT22;10593;48.398;10.698;2023-05-14T04:06:57;14.60;60.90
20866;DHT22;10593;48.398;10.698;2023-05-14T04:09:22;14.60;60.90
20866;DHT22;10593;48.398;10.698;2023-05-14T04:11:48;14.50;60.80
20866;DHT22;10593;48.398;10.698;2023-05-14T04:14:13;14.50;60.70
20866;DHT22;10593;48.398;10.698;2023-05-14T04:16:39;14.50;61.40
20866;DHT22;10593;48.398;10.698;2023-05-14T04:19:05;14.50;60.80
20866;DHT22;10593;48.398;10.698;2023-05-14T04:21:31;14.50;60.90
20866;DHT22;10593;48.398;10.698;2023-05-14T04:23:56;14.50;60.90
20866;DHT22;10593;48.398;10.698;2023-05-14T04:26:22;14.50;60.90
20866;DHT22;10593;48.398;10.698;2023-05-14T04:28:48;14.50;60.80
20866;DHT22;10593;48.398;10.698;2023-05-14T04:31:14;14.50;60.90
20866;DHT22;10593;48.398;10.698;2023-05-14T04:33:40;14.50;60.90
20866;DHT22;10593;48.398;10.698;2023-05-14T04:36:06;14.50;61.00
20866;DHT22;10593;48.398;10.698;2023-05-14T04:38:32;14.50;60.90
20866;DHT22;10593;48.398;10.698;2023-05-14T04:40:58;14.50;60.90
20866;DHT22;10593;48.398;10.698;2023-05-14T04:43:24;14.50;60.90
20866;DHT22;10593;48.398;10.698;2023-05-14T04:45:50;14.50;60.90
20866;DHT22;10593;48.398;10.698;2023-05-14T04:48:16;14.50;60.80
20866;DHT22;10593;48.398;10.698;2023-05-14T04:50:42;14.50;60.80
20866;DHT22;10593;48.398;10.698;2023-05-14T04:53:09;14.50;60.80
20866;DHT22;10593;48.398;10.698;2023-05-14T04:55:35;14.50;60.90
20866;DHT22;10593;48.398;10.698;2023-05-14T04:58:01;14.50;60.90
20866;DHT22;10593;48.398;10.698;2023-05-14T05:00:27;14.50;61.00
20866;DHT22;10593;48.398;10.698;2023-05-14T05:02:53;14.50;61.20
20866;DHT22;10593;48.398;10.698;2023-05-14T05:05:19;14.50;61.30
20866;DHT22;10593;48.398;10.698;2023-05-14T05:07:45;14.50;61.30
20866;DHT22;10593;48.398;10.698;2023-05-14T05:10:11;14.50;61.20
20866;DHT22;10593;48.398;10.698;2023-05-14T05:12:36;14.50;61.30
20866;DHT22;10593;48.398;10.698;2023-05-14T05:15:02;14.50;61.20
20866;DHT22;10593;48.398;10.698;2023-05-14T05:17:29;14.60;61.30
20866;DHT22;10593;48.398;10.698;2023-05-14T05:19:55;14.60;61.20
20866;DHT22;10593;48.398;10.698;2023-05-14T05:22:20;14.60;61.10
20866;DHT22;10593;48.398;10.698;2023-05-14T05:24:46;14.60;60.90
20866;DHT22;10593;48.398;10.698;2023-05-14T05:27:12;14.60;60.90
20866;DHT22;10593;48.398;10.698;2023-05-14T05:29:38;14.50;61.50
20866;DHT22;10593;48.398;10.698;2023-05-14T05:32:04;14.60;60.90
20866;DHT22;10593;48.398;10.698;2023-05-14T05:34:31;14.60;60.90
20866;DHT22;10593;48.398;10.698;2023-05-14T05:36:56;14.60;60.90
20866;DHT22;10593;48.398;10.698;2023-05-14T05:39:22;14.60;60.90
20866;DHT22;10593;48.398;10.698;2023-05-14T05:41:48;14.60;60.80
20866;DHT22;10593;48.398;10.698;2023-05-14T05:44:13;14.60;60.80
20866;DHT22;10593;48.398;10.698;2023-05-14T05:46:39;14.50;60.80
20866;DHT22;10593;48.398;10.698;2023-05-14T05:49:04;14.60;60.90
20866;DHT22;10593;48.398;10.698;2023-05-14T05:51:30;14.60;60.90
20866;DHT22;10593;48.398;10.698;2023-05-14T05:53:56;14.50;61.00
20866;DHT22;10593;48.398;10.698;2023-05-14T05:56:21;14.60;61.30
20866;DHT22;10593;48.398;10.698;2023-05-14T05:58:47;14.50;61.10
20866;DHT22;10593;48.398;10.698;2023-05-14T06:01:13;14.60;61.10
20866;DHT22;10593;48.398;10.698;2023-05-14T06:03:38;14.60;61.10
20866;DHT22;10593;48.398;10.698;2023-05-14T06:06:04;14.60;61.10
20866;DHT22;10593;48.398;10.698;2023-05-14T06:08:30;14.60;60.90
20866;DHT22;10593;48.398;10.698;2023-05-14T06:10:56;14.60;60.70
20866;DHT22;10593;48.398;10.698;2023-05-14T06:13:22;14.60;60.70
20866;DHT22;10593;48.398;10.698;2023-05-14T06:15:47;14.60;60.70
20866;DHT22;10593;48.398;10.698;2023-05-14T06:18:13;14.60;60.70
20866;DHT22;10593;48.398;10.698;2023-05-14T06:20:38;14.60;60.70
20866;DHT22;10593;48.398;10.698;2023-05-14T06:23:05;14.70;60.80
20866;DHT22;10593;48.398;10.698;2023-05-14T06:25:32;14.60;60.70
20866;DHT22;10593;48.398;10.698;2023-05-14T06:27:58;14.60;60.70
20866;DHT22;10593;48.398;10.698;2023-05-14T06:30:24;14.60;60.70
20866;DHT22;10593;48.398;10.698;2023-05-14T06:32:49;14.70;60.80
20866;DHT22;10593;48.398;10.698;2023-05-14T06:35:16;14.70;60.80
20866;DHT22;10593;48.398;10.698;2023-05-14T06:37:44;14.70;60.80
20866;DHT22;10593;48.398;10.698;2023-05-14T06:40:10;14.70;60.90
20866;DHT22;10593;48.398;10.698;2023-05-14T06:42:37;14.70;60.80
20866;DHT22;10593;48.398;10.698;2023-05-14T06:45:03;14.70;60.80
20866;DHT22;10593;48.398;10.698;2023-05-14T06:47:30;14.70;60.60
20866;DHT22;10593;48.398;10.698;2023-05-14T06:49:56;14.70;60.50
20866;DHT22;10593;48.398;10.698;2023-05-14T06:52:23;14.70;60.30
20866;DHT22;10593;48.398;10.698;2023-05-14T06:54:49;14.70;60.20
20866;DHT22;10593;48.398;10.698;2023-05-14T06:57:15;14.70;60.10
20866;DHT22;10593;48.398;10.698;2023-05-14T06:59:41;14.70;60.10
20866;DHT22;10593;48.398;10.698;2023-05-14T07:02:06;14.70;60.00
20866;DHT22;10593;48.398;10.698;2023-05-14T07:04:32;14.70;59.90
20866;DHT22;10593;48.398;10.698;2023-05-14T07:06:58;14.70;60.70
20866;DHT22;10593;48.398;10.698;2023-05-14T07:09:23;14.70;60.00
20866;DHT22;10593;48.398;10.698;2023-05-14T07:11:49;14.70;60.00
20866;DHT22;10593;48.398;10.698;2023-05-14T07:14:14;14.70;59.90
20866;DHT22;10593;48.398;10.698;2023-05-14T07:16:40;14.70;59.90
20866;DHT22;10593;48.398;10.698;2023-05-14T07:19:07;14.70;60.00
20866;DHT22;10593;48.398;10.698;2023-05-14T07:21:34;14.70;60.10
20866;DHT22;10593;48.398;10.698;2023-05-14T07:24:00;14.70;60.10
20866;DHT22;10593;48.398;10.698;2023-05-14T07:26:26;14.70;60.00
20866;DHT22;10593;48.398;10.698;2023-05-14T07:28:52;14.70;59.90
20866;DHT22;10593;48.398;10.698;2023-05-14T07:31:17;14.70;59.80
20866;DHT22;10593;48.398;10.698;2023-05-14T07:33:43;14.70;59.80
20866;DHT22;10593;48.398;10.698;2023-05-14T07:36:08;14.70;59.80
20866;DHT22;10593;48.398;10.698;2023-05-14T07:38:34;14.70;59.80
20866;DHT22;10593;48.398;10.698;2023-05-14T07:41:00;14.80;59.80
20866;DHT22;10593;48.398;10.698;2023-05-14T07:43:26;14.80;59.70
20866;DHT22;10593;48.398;10.698;2023-05-14T07:45:51;14.70;59.70
20866;DHT22;10593;48.398;10.698;2023-05-14T07:48:17;14.80;59.90
20866;DHT22;10593;48.398;10.698;2023-05-14T07:50:43;14.70;59.80
20866;DHT22;10593;48.398;10.698;2023-05-14T07:53:09;14.70;59.80
20866;DHT22;10593;48.398;10.698;2023-05-14T07:55:35;14.70;59.60
20866;DHT22;10593;48.398;10.698;2023-05-14T07:58:01;14.70;59.60
20866;DHT22;10593;48.398;10.698;2023-05-14T08:00:26;14.80;59.70
20866;DHT22;10593;48.398;10.698;2023-05-14T08:02:53;14.80;59.70
20866;DHT22;10593;48.398;10.698;2023-05-14T08:05:19;14.80;59.80
20866;DHT22;10593;48.398;10.698;2023-05-14T08:07:45;14.80;59.80
20866;DHT22;10593;48.398;10.698;2023-05-14T08:10:11;14.80;59.80
20866;DHT22;10593;48.398;10.698;2023-05-14T08:12:36;14.80;59.80
20866;DHT22;10593;48.398;10.698;2023-05-14T08:15:04;14.80;59.90
20866;DHT22;10593;48.398;10.698;2023-05-14T08:17:31;14.80;60.00
20866;DHT22;10593;48.398;10.698;2023-05-14T08:19:57;14.80;60.30
20866;DHT22;10593;48.398;10.698;2023-05-14T08:22:23;14.80;60.20
20866;DHT22;10593;48.398;10.698;2023-05-14T08:24:48;14.80;60.00
20866;DHT22;10593;48.398;10.698;2023-05-14T16:21:57;14.70;64.80
20866;DHT22;10593;48.398;10.698;2023-05-14T16:24:23;16.40;59.90
20866;DHT22;10593;48.398;10.698;2023-05-14T16:26:49;16.60;59.00
20866;DHT22;10593;48.398;10.698;2023-05-14T16:29:14;16.80;58.50
20866;DHT22;10593;48.398;10.698;2023-05-14T16:31:40;17.00;58.20
20866;DHT22;10593;48.398;10.698;2023-05-14T16:34:06;17.10;57.80
20866;DHT22;10593;48.398;10.698;2023-05-14T16:36:31;17.20;57.30
20866;DHT22;10593;48.398;10.698;2023-05-14T16:38:57;17.30;57.10
20866;DHT22;10593;48.398;10.698;2023-05-14T16:41:23;17.30;56.80
20866;DHT22;10593;48.398;10.698;2023-05-14T16:43:48;17.40;56.80
20866;DHT22;10593;48.398;10.698;2023-05-14T16:46:15;17.40;56.60
20866;DHT22;10593;48.398;10.698;2023-05-14T16:48:41;17.50;56.50
20866;DHT22;10593;48.398;10.698;2023-05-14T16:51:07;17.50;56.50
20866;DHT22;10593;48.398;10.698;2023-05-14T16:53:34;17.50;56.40
20866;DHT22;10593;48.398;10.698;2023-05-14T16:56:00;17.50;56.50
20866;DHT22;10593;48.398;10.698;2023-05-14T16:58:25;17.50;56.30
20866;DHT22;10593;48.398;10.698;2023-05-14T17:00:51;17.60;56.20
20866;DHT22;10593;48.398;10.698;2023-05-14T17:03:17;17.60;56.10
20866;DHT22;10593;48.398;10.698;2023-05-14T17:05:42;17.60;56.00
20866;DHT22;10593;48.398;10.698;2023-05-14T17:08:08;17.60;55.90
20866;DHT22;10593;48.398;10.698;2023-05-14T17:10:34;17.60;55.90
20866;DHT22;10593;48.398;10.698;2023-05-14T17:13:00;17.60;55.90
20866;DHT22;10593;48.398;10.698;2023-05-14T17:15:30;17.60;55.80
20866;DHT22;10593;48.398;10.698;2023-05-14T17:17:56;17.50;55.70
20866;DHT22;10593;48.398;10.698;2023-05-14T17:20:22;17.50;55.60
20866;DHT22;10593;48.398;10.698;2023-05-14T17:22:48;17.50;55.30
20866;DHT22;10593;48.398;10.698;2023-05-14T17:25:14;17.50;54.90
20866;DHT22;10593;48.398;10.698;2023-05-14T17:27:39;17.40;54.80
20866;DHT22;10593;48.398;10.698;2023-05-14T17:30:06;17.40;54.80
20866;DHT22;10593;48.398;10.698;2023-05-14T17:32:32;17.30;54.80
20866;DHT22;10593;48.398;10.698;2023-05-14T17:34:57;17.30;54.80
20866;DHT22;10593;48.398;10.698;2023-05-14T17:37:23;17.30;54.80
20866;DHT22;10593;48.398;10.698;2023-05-14T17:39:51;17.20;54.80
20866;DHT22;10593;48.398;10.698;2023-05-14T17:42:17;17.20;55.00
20866;DHT22;10593;48.398;10.698;2023-05-14T17:44:43;17.10;55.00
20866;DHT22;10593;48.398;10.698;2023-05-14T17:47:08;17.10;55.10
20866;DHT22;10593;48.398;10.698;2023-05-14T17:49:34;17.10;55.20
20866;DHT22;10593;48.398;10.698;2023-05-14T17:52:00;17.00;55.30
20866;DHT22;10593;48.398;10.698;2023-05-14T17:54:26;17.00;55.40
20866;DHT22;10593;48.398;10.698;2023-05-14T17:56:52;17.00;55.50
20866;DHT22;10593;48.398;10.698;2023-05-14T17:59:18;17.00;55.70
20866;DHT22;10593;48.398;10.698;2023-05-14T18:01:44;17.00;55.90
20866;DHT22;10593;48.398;10.698;2023-05-14T18:04:10;17.00;56.10
20866;DHT22;10593;48.398;10.698;2023-05-14T18:06:35;17.00;56.30
20866;DHT22;10593;48.398;10.698;2023-05-14T18:09:01;17.00;56.40
20866;DHT22;10593;48.398;10.698;2023-05-14T18:11:27;17.00;56.70
20866;DHT22;10593;48.398;10.698;2023-05-14T18:13:59;17.00;56.80
20866;DHT22;10593;48.398;10.698;2023-05-14T18:16:26;17.00;57.00
20866;DHT22;10593;48.398;10.698;2023-05-14T18:18:51;17.00;57.10
20866;DHT22;10593;48.398;10.698;2023-05-14T18:21:17;17.00;57.00
20866;DHT22;10593;48.398;10.698;2023-05-14T18:23:43;17.00;57.10
20866;DHT22;10593;48.398;10.698;2023-05-14T18:26:09;17.00;57.20
20866;DHT22;10593;48.398;10.698;2023-05-14T18:28:35;16.90;57.50
20866;DHT22;10593;48.398;10.698;2023-05-14T18:31:01;17.00;57.20
20866;DHT22;10593;48.398;10.698;2023-05-14T18:33:30;17.00;57.80
20866;DHT22;10593;48.398;10.698;2023-05-14T18:35:56;16.90;56.90
20866;DHT22;10593;48.398;10.698;2023-05-14T18:38:22;17.00;56.80
20866;DHT22;10593;48.398;10.698;2023-05-14T18:40:48;16.90;56.60
20866;DHT22;10593;48.398;10.698;2023-05-14T18:43:14;16.90;56.70
20866;DHT22;10593;48.398;10.698;2023-05-14T18:45:41;16.80;56.70
20866;DHT22;10593;48.398;10.698;2023-05-14T18:48:07;16.90;56.80
20866;DHT22;10593;48.398;10.698;2023-05-14T18:50:34;16.80;56.90
20866;DHT22;10593;48.398;10.698;2023-05-14T18:52:59;16.80;57.10
20866;DHT22;10593;48.398;10.698;2023-05-14T18:55:25;16.80;57.20
20866;DHT22;10593;48.398;10.698;2023-05-14T18:57:51;16.80;57.20
20866;DHT22;10593;48.398;10.698;2023-05-14T19:00:17;16.80;57.30
20866;DHT22;10593;48.398;10.698;2023-05-14T19:02:43;16.80;57.20
20866;DHT22;10593;48.398;10.698;2023-05-14T19:05:09;16.80;57.20
20866;DHT22;10593;48.398;10.698;2023-05-14T19:07:36;16.80;57.20
20866;DHT22;10593;48.398;10.698;2023-05-14T19:10:03;16.80;57.10
20866;DHT22;10593;48.398;10.698;2023-05-14T19:12:29;16.80;57.10
20866;DHT22;10593;48.398;10.698;2023-05-14T19:14:56;16.80;57.10
20866;DHT22;10593;48.398;10.698;2023-05-14T19:17:22;16.70;57.20
20866;DHT22;10593;48.398;10.698;2023-05-14T19:19:48;16.80;57.50
20866;DHT22;10593;48.398;10.698;2023-05-14T19:22:14;16.70;57.50
20866;DHT22;10593;48.398;10.698;2023-05-14T19:24:39;16.70;57.60
20866;DHT22;10593;48.398;10.698;2023-05-14T19:27:05;16.70;57.70
20866;DHT22;10593;48.398;10.698;2023-05-14T19:29:31;16.70;57.70
20866;DHT22;10593;48.398;10.698;2023-05-14T19:31:58;16.70;58.30
20866;DHT22;10593;48.398;10.698;2023-05-14T19:34:23;16.70;57.90
20866;DHT22;10593;48.398;10.698;2023-05-14T19:36:49;16.70;57.90
20866;DHT22;10593;48.398;10.698;2023-05-14T19:39:15;16.70;57.90
20866;DHT22;10593;48.398;10.698;2023-05-14T19:41:41;16.70;57.90
20866;DHT22;10593;48.398;10.698;2023-05-14T19:44:06;16.70;57.90
20866;DHT22;10593;48.398;10.698;2023-05-14T19:46:32;16.70;57.90
20866;DHT22;10593;48.398;10.698;2023-05-14T19:48:58;16.60;57.70
20866;DHT22;10593;48.398;10.698;2023-05-14T19:51:24;16.60;57.60
20866;DHT22;10593;48.398;10.698;2023-05-14T19:53:49;16.60;57.60
20866;DHT22;10593;48.398;10.698;2023-05-14T19:56:15;16.60;57.50
20866;DHT22;10593;48.398;10.698;2023-05-14T19:58:41;16.60;57.50
20866;DHT22;10593;48.398;10.698;2023-05-14T20:01:07;16.50;57.40
20866;DHT22;10593;48.398;10.698;2023-05-14T20:03:33;16.60;57.50
20866;DHT22;10593;48.398;10.698;2023-05-14T20:05:59;16.50;57.40
20866;DHT22;10593;48.398;10.698;2023-05-14T20:08:25;16.50;57.40
20866;DHT22;10593;48.398;10.698;2023-05-14T20:10:51;16.50;57.40
20866;DHT22;10593;48.398;10.698;2023-05-14T20:13:16;16.50;57.40
20866;DHT22;10593;48.398;10.698;2023-05-14T20:15:43;16.50;57.30
20866;DHT22;10593;48.398;10.698;2023-05-14T20:18:08;16.50;57.20
20866;DHT22;10593;48.398;10.698;2023-05-14T20:20:34;16.40;57.00
20866;DHT22;10593;48.398;10.698;2023-05-14T20:23:00;16.40;57.00
20866;DHT22;10593;48.398;10.698;2023-05-14T20:25:25;16.40;57.00
20866;DHT22;10593;48.398;10.698;2023-05-14T20:27:51;16.30;57.00
20866;DHT22;10593;48.398;10.698;2023-05-14T20:30:17;16.30;57.10
20866;DHT22;10593;48.398;10.698;2023-05-14T20:32:43;16.30;57.20
20866;DHT22;10593;48.398;10.698;2023-05-14T20:35:09;16.30;57.30
20866;DHT22;10593;48.398;10.698;2023-05-14T20:37:34;16.30;57.40
20866;DHT22;10593;48.398;10.698;2023-05-14T20:40:01;16.20;57.40
20866;DHT22;10593;48.398;10.698;2023-05-14T20:42:28;16.30;57.30
20866;DHT22;10593;48.398;10.698;2023-05-14T20:44:54;16.20;57.30
20866;DHT22;10593;48.398;10.698;2023-05-14T20:47:20;16.20;57.50
20866;DHT22;10593;48.398;10.698;2023-05-14T20:49:49;16.20;57.50
20866;DHT22;10593;48.398;10.698;2023-05-14T20:52:15;16.20;57.60
20866;DHT22;10593;48.398;10.698;2023-05-14T20:54:42;16.20;57.70
20866;DHT22;10593;48.398;10.698;2023-05-14T20:57:09;16.10;57.70
20866;DHT22;10593;48.398;10.698;2023-05-14T20:59:35;16.10;57.80
20866;DHT22;10593;48.398;10.698;2023-05-14T21:02:00;16.10;57.70
20866;DHT22;10593;48.398;10.698;2023-05-14T21:04:26;16.10;57.70
20866;DHT22;10593;48.398;10.698;2023-05-14T21:06:52;16.10;57.70
20866;DHT22;10593;48.398;10.698;2023-05-14T21:09:18;16.10;57.70
20866;DHT22;10593;48.398;10.698;2023-05-14T21:11:45;16.10;57.70
20866;DHT22;10593;48.398;10.698;2023-05-14T21:14:11;16.10;57.60
20866;DHT22;10593;48.398;10.698;2023-05-14T21:16:37;16.10;57.50
20866;DHT22;10593;48.398;10.698;2023-05-14T21:19:03;16.00;57.50
20866;DHT22;10593;48.398;10.698;2023-05-14T21:21:28;16.00;57.40
20866;DHT22;10593;48.398;10.698;2023-05-14T21:23:54;16.00;57.40
20866;DHT22;10593;48.398;10.698;2023-05-14T21:26:20;16.00;57.40
20866;DHT22;10593;48.398;10.698;2023-05-14T21:28:46;16.00;57.40
20866;DHT22;10593;48.398;10.698;2023-05-14T21:31:12;16.00;57.40
20866;DHT22;10593;48.398;10.698;2023-05-14T21:33:38;16.00;57.40
20866;DHT22;10593;48.398;10.698;2023-05-14T21:36:06;15.90;57.40
20866;DHT22;10593;48.398;10.698;2023-05-14T21:38:32;15.90;57.50
20866;DHT22;10593;48.398;10.698;2023-05-14T21:40:59;15.90;57.60
20866;DHT22;10593;48.398;10.698;2023-05-14T21:43:25;15.90;57.70
20866;DHT22;10593;48.398;10.698;2023-05-14T21:45:51;15.90;57.70
20866;DHT22;10593;48.398;10.698;2023-05-14T21:48:16;15.90;57.60
20866;DHT22;10593;48.398;10.698;2023-05-14T21:50:42;15.90;57.60
20866;DHT22;10593;48.398;10.698;2023-05-14T21:53:08;15.90;57.70
20866;DHT22;10593;48.398;10.698;2023-05-14T21:55:34;15.80;57.60
20866;DHT22;10593;48.398;10.698;2023-05-14T21:58:00;15.80;57.60
20866;DHT22;10593;48.398;10.698;2023-05-14T22:00:27;15.80;57.50
20866;DHT22;10593;48.398;10.698;2023-05-14T22:02:53;15.80;57.50
20866;DHT22;10593;48.398;10.698;2023-05-14T22:05:19;15.80;57.50
20866;DHT22;10593;48.398;10.698;2023-05-14T22:07:47;15.80;57.50
20866;DHT22;10593;48.398;10.698;2023-05-14T22:10:14;15.80;57.50
20866;DHT22;10593;48.398;10.698;2023-05-14T22:12:41;15.80;57.50
20866;DHT22;10593;48.398;10.698;2023-05-14T22:15:08;15.80;57.50
20866;DHT22;10593;48.398;10.698;2023-05-14T22:17:34;15.70;57.50
20866;DHT22;10593;48.398;10.698;2023-05-14T22:20:05;15.70;57.50
20866;DHT22;10593;48.398;10.698;2023-05-14T22:22:34;15.70;57.60
20866;DHT22;10593;48.398;10.698;2023-05-14T22:25:01;15.70;57.60
20866;DHT22;10593;48.398;10.698;2023-05-14T22:27:28;15.70;57.60
20866;DHT22;10593;48.398;10.698;2023-05-14T22:29:55;15.70;57.60
20866;DHT22;10593;48.398;10.698;2023-05-14T22:32:21;15.70;57.60
20866;DHT22;10593;48.398;10.698;2023-05-14T22:34:46;15.70;57.60
20866;DHT22;10593;48.398;10.698;2023-05-14T22:37:12;15.60;57.60
20866;DHT22;10593;48.398;10.698;2023-05-14T22:39:38;15.60;57.50
20866;DHT22;10593;48.398;10.698;2023-05-14T22:42:04;15.60;57.50
20866;DHT22;10593;48.398;10.698;2023-05-14T22:44:30;15.60;57.50
20866;DHT22;10593;48.398;10.698;2023-05-14T22:46:56;15.60;57.60
20866;DHT22;10593;48.398;10.698;2023-05-14T22:49:21;15.60;57.50
20866;DHT22;10593;48.398;10.698;2023-05-14T22:51:47;15.60;57.50
20866;DHT22;10593;48.398;10.698;2023-05-14T22:54:13;15.50;57.40
20866;DHT22;10593;48.398;10.698;2023-05-14T22:56:38;15.60;57.50
20866;DHT22;10593;48.398;10.698;2023-05-14T22:59:04;15.50;57.40
20866;DHT22;10593;48.398;10.698;2023-05-14T23:01:30;15.50;57.50
20866;DHT22;10593;48.398;10.698;2023-05-14T23:03:56;15.50;57.50
20866;DHT22;10593;48.398;10.698;2023-05-14T23:06:23;15.50;57.50